Time;durP1;ratioP1;P1;durP2;ratioP2;P2;SDS_P1;SDS_P2;PMS_P1;PMS_P2;Temp;Humidity;BMP_temperature;BMP_pressure;BME280_temperature;BME280_humidity;BME280_pressure;Samples;Min_cycle;Max_cycle;Signal;HPM_P1;HPM_P2
2022/04/02 00:01:39;;;;;;;;;;;;;;;21.27;36.60;100560.66;4968753;28;5437;-54
2022/04/02 00:04:07;;;;;;;;;;;;;;;21.25;36.77;100561.31;4977074;28;5386;-53
2022/04/02 00:06:33;;;;;;;;;;;;;;;21.26;36.72;100562.81;4970651;28;4006;-52
2022/04/02 00:09:00;;;;;;;;;;;;;;;21.26;36.70;100568.56;4973785;28;4233;-50
2022/04/02 00:11:26;;;;;;;;;;;;;;;21.25;36.66;100569.94;4972156;28;4209;-51
2022/04/02 00:13:52;;;;;;;;;;;;;;;21.26;36.66;100567.84;4970676;28;4379;-52
2022/04/02 00:16:19;;;;;;;;;;;;;;;21.23;36.60;100564.09;4972947;28;5149;-51
2022/04/02 00:18:45;;;;;;;;;;;;;;;21.24;36.65;100568.47;4972469;28;4098;-53
2022/04/02 00:21:11;;;;;;;;;;;;;;;21.23;36.65;100569.88;4972750;28;4414;-53
2022/04/02 00:23:43;;;;;;;;;;;;;;;21.25;36.74;100561.31;4970596;28;4230;-52
2022/04/02 00:26:14;;;;;;;;;;;;;;;21.22;36.83;100556.88;4972443;28;4053;-55
2022/04/02 00:28:40;;;;;;;;;;;;;;;21.24;36.78;100556.22;4969597;28;4258;-49
2022/04/02 00:31:08;;;;;;;;;;;;;;;21.21;36.82;100557.53;4970631;28;4112;-52
2022/04/02 00:33:35;;;;;;;;;;;;;;;21.21;36.70;100566.16;4968857;28;4260;-53
2022/04/02 00:36:02;;;;;;;;;;;;;;;21.21;36.70;100554.66;4973784;28;4325;-54
2022/04/02 00:38:28;;;;;;;;;;;;;;;21.22;36.69;100556.88;4972669;28;4304;-51
2022/04/02 00:40:55;;;;;;;;;;;;;;;21.20;36.73;100565.44;4974537;28;4085;-53
2022/04/02 00:43:24;;;;;;;;;;;;;;;21.22;36.76;100559.03;4968069;28;4258;-51
2022/04/02 00:45:51;;;;;;;;;;;;;;;21.21;36.83;100560.41;4974636;28;4031;-51
2022/04/02 00:48:18;;;;;;;;;;;;;;;21.20;36.71;100559.69;4971367;28;4496;-50
2022/04/02 00:50:45;;;;;;;;;;;;;;;21.20;36.83;100562.56;4973292;28;4435;-52
2022/04/02 00:53:11;;;;;;;;;;;;;;;21.22;36.71;100561.91;4972350;28;5452;-52
2022/04/02 00:55:38;;;;;;;;;;;;;;;21.21;36.70;100566.16;4970623;28;5284;-52
2022/04/02 00:58:05;;;;;;;;;;;;;;;21.21;36.70;100560.41;4956580;28;4238;-51
2022/04/02 01:00:32;;;;;;;;;;;;;;;21.21;36.96;100572.69;4968918;28;4360;-52
2022/04/02 01:02:59;;;;;;;;;;;;;;;21.20;36.83;100568.31;4972113;28;4244;-52
2022/04/02 01:05:26;;;;;;;;;;;;;;;21.18;36.87;100568.25;4970954;28;4885;-53
2022/04/02 01:07:53;;;;;;;;;;;;;;;21.20;36.78;100574.06;4960762;28;4112;-49
2022/04/02 01:10:20;;;;;;;;;;;;;;;21.19;36.83;100569.72;4973492;28;5252;-50
2022/04/02 01:12:48;;;;;;;;;;;;;;;21.19;36.77;100574.72;4954497;28;4266;-52
2022/04/02 01:15:16;;;;;;;;;;;;;;;21.19;36.70;100575.50;4975037;28;5543;-51
2022/04/02 01:17:48;;;;;;;;;;;;;;;21.20;36.83;100588.47;4971267;28;4205;-50
2022/04/02 01:20:25;;;;;;;;;;;;;;;21.20;36.78;100588.47;4954196;28;4115;-53
2022/04/02 01:22:54;;;;;;;;;;;;;;;21.20;36.80;100582.72;4943845;28;4642;-50
2022/04/02 01:25:21;;;;;;;;;;;;;;;21.18;36.81;100591.28;4953871;28;4158;-51
2022/04/02 01:27:50;;;;;;;;;;;;;;;21.17;36.84;100591.94;4951594;28;4254;-53
2022/04/02 01:30:16;;;;;;;;;;;;;;;21.16;36.63;100588.31;4967394;28;4216;-53
2022/04/02 01:32:43;;;;;;;;;;;;;;;21.18;36.77;100588.41;4967984;28;4338;-51
2022/04/02 01:35:13;;;;;;;;;;;;;;;21.15;36.67;100583.22;4957192;28;4461;-51
2022/04/02 01:37:48;;;;;;;;;;;;;;;21.16;36.77;100576.78;4953187;28;4056;-54
2022/04/02 01:40:19;;;;;;;;;;;;;;;21.18;36.85;100579.75;4965956;28;5605;-52
2022/04/02 01:42:45;;;;;;;;;;;;;;;21.18;36.81;100597.03;4965777;28;4353;-53
2022/04/02 01:45:12;;;;;;;;;;;;;;;21.16;36.82;100582.56;4968952;28;4232;-49
2022/04/02 01:47:50;;;;;;;;;;;;;;;21.17;36.69;100589.06;4970635;28;4264;-55
2022/04/02 01:50:18;;;;;;;;;;;;;;;21.15;36.69;100586.84;4972385;28;3992;-54
2022/04/02 01:52:48;;;;;;;;;;;;;;;21.15;36.74;100583.97;4966903;28;4095;-49
2022/04/02 01:55:17;;;;;;;;;;;;;;;21.14;36.87;100591.13;4952109;28;4212;-51
2022/04/02 01:57:49;;;;;;;;;;;;;;;21.15;36.71;100586.84;4966574;28;4105;-51
2022/04/02 02:00:23;;;;;;;;;;;;;;;21.15;36.66;100581.09;4967591;28;4290;-52
2022/04/02 02:02:50;;;;;;;;;;;;;;;21.14;36.86;100585.34;4952943;28;4103;-51
2022/04/02 02:05:16;;;;;;;;;;;;;;;21.13;36.86;100595.41;4961048;28;4038;-55
2022/04/02 02:07:48;;;;;;;;;;;;;;;21.13;36.79;100589.66;4970115;28;4140;-54
2022/04/02 02:10:16;;;;;;;;;;;;;;;21.13;36.80;100587.50;4965828;28;4139;-51
2022/04/02 02:12:57;;;;;;;;;;;;;;;21.14;36.77;100599.75;4976396;28;4162;-55
2022/04/02 02:15:31;;;;;;;;;;;;;;;21.13;36.79;100595.41;4975802;28;4012;-54
2022/04/02 02:18:01;;;;;;;;;;;;;;;21.13;36.75;100589.66;4972640;28;4395;-50
2022/04/02 02:20:28;;;;;;;;;;;;;;;21.13;36.76;100589.66;4972532;28;4333;-53
2022/04/02 02:22:54;;;;;;;;;;;;;;;21.12;36.82;100576.66;4969086;28;4266;-53
2022/04/02 02:25:21;;;;;;;;;;;;;;;21.10;36.88;100580.19;4977177;28;5286;-54
2022/04/02 02:27:52;;;;;;;;;;;;;;;21.10;36.87;100585.94;4974104;28;4310;-53
2022/04/02 02:30:21;;;;;;;;;;;;;;;21.11;36.90;100583.81;4974233;28;4145;-53
2022/04/02 02:32:47;;;;;;;;;;;;;;;21.11;36.87;100587.41;4959431;28;4249;-51
2022/04/02 02:38:03;;;;;;;;;;;;;;;21.09;36.86;100580.84;4955206;28;4179;-54
2022/04/02 02:40:33;;;;;;;;;;;;;;;21.12;36.88;100582.41;4971138;28;4112;-52
2022/04/02 02:42:59;;;;;;;;;;;;;;;21.10;36.80;100590.97;4970259;28;4019;-53
2022/04/02 02:45:31;;;;;;;;;;;;;;;21.11;36.95;100581.66;4972377;28;5330;-52
2022/04/02 02:48:00;;;;;;;;;;;;;;;21.13;36.78;100583.88;4968872;28;4427;-53
2022/04/02 02:50:42;;;;;;;;;;;;;;;21.11;36.79;100586.69;4961699;28;4095;-49
2022/04/02 02:53:11;;;;;;;;;;;;;;;21.11;36.89;100587.41;4972552;28;5556;-51
2022/04/02 02:55:38;;;;;;;;;;;;;;;21.11;36.91;100586.69;4974182;28;4163;-49
2022/04/02 02:58:08;;;;;;;;;;;;;;;21.12;36.88;100588.91;4972118;28;4389;-52
2022/04/02 03:00:36;;;;;;;;;;;;;;;21.13;37.00;100599.00;4960122;28;4006;-52
2022/04/02 03:03:06;;;;;;;;;;;;;;;21.13;37.04;100596.13;4973597;28;4373;-53
2022/04/02 03:05:33;;;;;;;;;;;;;;;21.11;37.01;100586.69;4973234;28;4230;-52
2022/04/02 03:08:05;;;;;;;;;;;;;;;21.11;36.90;100595.31;4959446;28;4602;-50
2022/04/02 03:10:41;;;;;;;;;;;;;;;21.11;36.91;100595.31;4973624;28;4117;-52
2022/04/02 03:13:08;;;;;;;;;;;;;;;21.10;37.00;100590.97;4973948;28;4311;-51
2022/04/02 03:15:35;;;;;;;;;;;;;;;21.10;36.98;100583.06;4977143;28;4466;-53
2022/04/02 03:18:06;;;;;;;;;;;;;;;21.10;37.05;100590.97;4974122;28;4049;-50
2022/04/02 03:20:35;;;;;;;;;;;;;;;21.10;36.96;100590.97;4972161;28;4112;-50
2022/04/02 03:23:02;;;;;;;;;;;;;;;21.11;36.85;100598.19;4968317;28;4017;-52
2022/04/02 03:25:29;;;;;;;;;;;;;;;21.12;36.99;100594.66;4974817;28;4342;-52
2022/04/02 03:27:55;;;;;;;;;;;;;;;21.07;36.94;100598.03;4975877;28;4196;-56
2022/04/02 03:30:23;;;;;;;;;;;;;;;21.07;36.98;100598.03;4975272;28;4792;-53
2022/04/02 03:32:51;;;;;;;;;;;;;;;21.10;36.90;100602.50;4970397;28;4037;-52
2022/04/02 03:35:18;;;;;;;;;;;;;;;21.12;36.92;100605.47;4968982;28;4057;-54
2022/04/02 03:37:49;;;;;;;;;;;;;;;21.12;36.91;100606.19;4970570;28;4263;-55
2022/04/02 03:40:16;;;;;;;;;;;;;;;21.10;36.88;100603.22;4974633;28;4178;-53
2022/04/02 03:42:44;;;;;;;;;;;;;;;21.12;36.95;100619.84;4971907;28;4195;-49
2022/04/02 03:45:11;;;;;;;;;;;;;;;21.08;37.02;100605.28;4971625;28;5298;-54
2022/04/02 03:47:42;;;;;;;;;;;;;;;21.12;37.03;100616.97;4968337;28;4199;-51
2022/04/02 03:50:09;;;;;;;;;;;;;;;21.12;37.17;100614.81;4967043;28;4191;-52
2022/04/02 03:52:43;;;;;;;;;;;;;;;21.11;36.96;100627.72;4971485;28;6374;-53
2022/04/02 03:55:14;;;;;;;;;;;;;;;21.13;37.17;100629.94;4975495;28;4289;-51
2022/04/02 03:57:44;;;;;;;;;;;;;;;21.11;37.12;100632.75;4970178;28;4462;-49
2022/04/02 04:00:11;;;;;;;;;;;;;;;21.11;36.98;100632.75;4972007;28;4246;-53
2022/04/02 04:02:45;;;;;;;;;;;;;;;21.07;37.10;100633.34;4975436;28;4129;-50
2022/04/02 04:05:19;;;;;;;;;;;;;;;21.09;37.04;100644.19;4961188;28;4023;-53
2022/04/02 04:07:46;;;;;;;;;;;;;;;21.11;37.15;100639.25;4974862;28;4100;-53
2022/04/02 04:10:13;;;;;;;;;;;;;;;21.07;37.08;100632.59;4974124;28;4232;-49
2022/04/02 04:12:47;;;;;;;;;;;;;;;21.11;37.10;100627.00;4975792;28;4454;-54
2022/04/02 04:15:14;;;;;;;;;;;;;;;21.11;37.15;100638.50;4976604;28;4333;-52
2022/04/02 04:17:42;;;;;;;;;;;;;;;21.11;37.11;100632.75;4970741;28;4247;-55
2022/04/02 04:20:09;;;;;;;;;;;;;;;21.10;37.04;100646.41;4972706;28;4391;-50
2022/04/02 04:22:37;;;;;;;;;;;;;;;21.11;37.03;100645.00;4970602;28;4092;-53
2022/04/02 04:25:09;;;;;;;;;;;;;;;21.10;37.07;100655.06;4974467;28;4100;-52
2022/04/02 04:27:37;;;;;;;;;;;;;;;21.10;37.04;100657.19;4971699;28;3979;-53
2022/04/02 04:30:05;;;;;;;;;;;;;;;21.10;36.98;100657.19;4965912;28;4249;-53
2022/04/02 04:32:32;;;;;;;;;;;;;;;21.11;37.08;100661.53;4975894;28;4444;-53
2022/04/02 04:34:59;;;;;;;;;;;;;;;21.09;37.03;100659.31;4971342;28;4433;-50
2022/04/02 04:37:25;;;;;;;;;;;;;;;21.09;37.10;100658.56;4965172;28;4252;-50
2022/04/02 04:39:52;;;;;;;;;;;;;;;21.11;37.05;100661.53;4971899;28;5801;-51
2022/04/02 04:42:21;;;;;;;;;;;;;;;21.08;36.88;100668.63;4956990;28;5233;-53
2022/04/02 04:44:51;;;;;;;;;;;;;;;21.09;37.22;100675.84;4977334;28;4241;-53
2022/04/02 04:47:19;;;;;;;;;;;;;;;21.07;37.16;100667.91;4971267;28;4361;-54
2022/04/02 04:49:49;;;;;;;;;;;;;;;21.09;37.11;100670.09;4969011;28;4287;-53
2022/04/02 04:52:15;;;;;;;;;;;;;;;21.10;37.08;100677.34;4973972;28;4209;-53
2022/04/02 04:54:43;;;;;;;;;;;;;;;21.11;37.20;100673.06;4972954;28;4078;-51
2022/04/02 04:57:13;;;;;;;;;;;;;;;21.11;37.03;100678.81;4971657;28;4123;-52
2022/04/02 04:59:45;;;;;;;;;;;;;;;21.08;37.10;100685.91;4970779;28;4243;-52
2022/04/02 05:02:14;;;;;;;;;;;;;;;21.09;37.18;100682.34;4970718;28;4159;-51
2022/04/02 05:04:42;;;;;;;;;;;;;;;21.07;37.07;100685.16;4953846;28;4079;-52
2022/04/02 05:07:09;;;;;;;;;;;;;;;21.08;37.09;100685.91;4957506;28;5382;-51
2022/04/02 05:09:38;;;;;;;;;;;;;;;21.09;37.18;100687.38;4954435;28;4454;-54
2022/04/02 05:12:05;;;;;;;;;;;;;;;21.09;37.26;100693.13;4975075;28;4070;-50
2022/04/02 05:14:35;;;;;;;;;;;;;;;21.09;37.22;100687.38;4972199;28;4093;-53
2022/04/02 05:17:03;;;;;;;;;;;;;;;21.11;37.15;100696.09;4971056;28;4242;-51
2022/04/02 05:19:33;;;;;;;;;;;;;;;21.09;37.21;100696.00;4970101;28;4083;-51
2022/04/02 05:22:01;;;;;;;;;;;;;;;21.10;36.99;100700.38;4973918;28;4211;-52
2022/04/02 05:24:34;;;;;;;;;;;;;;;21.09;37.13;100698.88;4972198;28;4131;-54
2022/04/02 05:27:00;;;;;;;;;;;;;;;21.06;37.14;100700.22;4970576;28;4128;-49
2022/04/02 05:29:27;;;;;;;;;;;;;;;21.08;37.11;100703.91;4969195;28;4630;-54
2022/04/02 05:31:53;;;;;;;;;;;;;;;21.09;37.08;100707.53;4971847;28;3970;-55
2022/04/02 05:34:20;;;;;;;;;;;;;;;21.09;37.12;100714.00;4970092;28;4639;-54
2022/04/02 05:36:46;;;;;;;;;;;;;;;21.09;37.06;100719.03;4972220;28;4106;-54
2022/04/02 05:39:12;;;;;;;;;;;;;;;21.08;37.17;100720.44;4971654;28;4509;-53
2022/04/02 05:41:39;;;;;;;;;;;;;;;21.07;37.24;100719.72;4971939;28;4113;-49
2022/04/02 05:44:07;;;;;;;;;;;;;;;21.06;37.21;100723.25;4965775;28;4533;-51
2022/04/02 05:46:33;;;;;;;;;;;;;;;21.08;37.33;100717.56;4974359;28;5072;-54
2022/04/02 05:49:00;;;;;;;;;;;;;;;21.10;37.24;100723.41;4979603;28;4303;-51
2022/04/02 05:51:26;;;;;;;;;;;;;;;21.10;37.26;100729.16;4979983;28;4169;-50
2022/04/02 05:53:52;;;;;;;;;;;;;;;21.10;37.38;100729.16;4979056;28;4067;-51
2022/04/02 05:56:19;;;;;;;;;;;;;;;21.11;37.21;100736.41;4979746;28;4076;-53
2022/04/02 05:58:45;;;;;;;;;;;;;;;21.09;37.37;100737.03;4974114;28;4279;-52
2022/04/02 06:01:12;;;;;;;;;;;;;;;21.10;37.35;100741.41;4979518;28;4598;-50
2022/04/02 06:03:42;;;;;;;;;;;;;;;21.10;37.31;100729.91;4981287;28;4155;-49
2022/04/02 06:06:08;;;;;;;;;;;;;;;21.09;37.39;100737.03;4974907;28;5274;-54
2022/04/02 06:08:34;;;;;;;;;;;;;;;21.08;37.32;100743.47;4982075;28;4126;-52
2022/04/02 06:11:01;;;;;;;;;;;;;;;21.09;37.27;100739.94;4974985;28;4700;-51
2022/04/02 06:13:27;;;;;;;;;;;;;;;21.08;37.44;100746.38;4978742;28;4159;-49
2022/04/02 06:15:54;;;;;;;;;;;;;;;21.08;37.40;100749.97;4975041;28;4263;-52
2022/04/02 06:18:21;;;;;;;;;;;;;;;21.08;37.24;100752.13;4979110;28;4739;-55
2022/04/02 06:20:48;;;;;;;;;;;;;;;21.09;37.29;100756.47;4972812;28;4263;-53
2022/04/02 06:23:15;;;;;;;;;;;;;;;21.09;37.17;100759.34;4974029;28;4179;-51
2022/04/02 06:25:41;;;;;;;;;;;;;;;21.08;37.22;100749.25;4980110;28;4168;-54
2022/04/02 06:28:08;;;;;;;;;;;;;;;21.07;37.25;100750.63;4978846;28;4192;-55
2022/04/02 06:30:34;;;;;;;;;;;;;;;21.08;37.21;100755.72;4975158;28;4276;-51
2022/04/02 06:33:00;;;;;;;;;;;;;;;21.06;37.22;100761.41;4978542;28;5270;-52
2022/04/02 06:35:28;;;;;;;;;;;;;;;21.06;37.49;100769.31;4958466;28;4249;-52
2022/04/02 06:37:55;;;;;;;;;;;;;;;21.07;37.42;100765.00;4963319;28;4241;-54
2022/04/02 06:40:21;;;;;;;;;;;;;;;21.06;37.40;100758.53;4978083;28;4170;-53
2022/04/02 06:42:48;;;;;;;;;;;;;;;21.07;37.29;100770.78;4972989;28;4022;-51
2022/04/02 06:45:24;;;;;;;;;;;;;;;21.07;37.45;100762.13;4974159;28;4382;-52
2022/04/02 06:47:52;;;;;;;;;;;;;;;21.08;37.32;100769.41;4974524;28;4337;-54
2022/04/02 06:50:19;;;;;;;;;;;;;;;21.09;37.37;100767.97;4974917;28;4125;-52
2022/04/02 06:52:45;;;;;;;;;;;;;;;21.01;37.37;100768.41;4974106;28;4292;-50
2022/04/02 06:55:13;;;;;;;;;;;;;;;21.09;37.38;100773.75;4972191;28;6400;-58
2022/04/02 06:57:41;;;;;;;;;;;;;;;20.98;37.05;100763.97;4973440;28;4252;-54
2022/04/02 07:00:08;;;;;;;;;;;;;;;21.06;37.66;100769.31;4978592;28;4517;-58
2022/04/02 07:02:34;;;;;;;;;;;;;;;21.12;38.11;100764.53;4967546;28;4304;-58
2022/04/02 07:05:00;;;;;;;;;;;;;;;21.17;38.54;100776.97;4976417;28;4187;-58
2022/04/02 07:07:27;;;;;;;;;;;;;;;20.71;37.58;100771.44;4973600;28;4744;-54
2022/04/02 07:09:57;;;;;;;;;;;;;;;20.27;37.59;100773.03;4975432;28;4169;-54
2022/04/02 07:12:24;;;;;;;;;;;;;;;20.53;37.19;100764.88;4976393;28;4178;-57
2022/04/02 07:14:50;;;;;;;;;;;;;;;20.24;36.79;100765.72;4965658;28;4448;-56
2022/04/02 07:17:17;;;;;;;;;;;;;;;20.41;36.68;100770.81;4971296;28;4238;-55
2022/04/02 07:19:44;;;;;;;;;;;;;;;20.80;36.31;100784.06;4979049;28;4126;-56
2022/04/02 07:22:10;;;;;;;;;;;;;;;20.98;36.31;100780.47;4975691;28;4250;-57
2022/04/02 07:24:37;;;;;;;;;;;;;;;21.08;36.06;100775.16;4978909;28;4240;-56
2022/04/02 07:27:03;;;;;;;;;;;;;;;21.10;36.09;100781.72;4976328;28;4186;-57
2022/04/02 07:29:30;;;;;;;;;;;;;;;21.18;35.98;100774.81;4976550;28;4060;-56
2022/04/02 07:31:57;;;;;;;;;;;;;;;21.18;36.09;100787.06;4971543;28;4045;-56
2022/04/02 07:34:24;;;;;;;;;;;;;;;21.22;36.16;100795.91;4976951;28;5461;-56
2022/04/02 07:37:09;;;;;;;;;;;;;;;21.23;36.37;100788.72;4975566;28;5301;-55
2022/04/02 07:39:58;;;;;;;;;;;;;;;21.23;36.66;100785.13;4959961;28;4106;-58
2022/04/02 07:42:26;;;;;;;;;;;;;;;21.26;36.95;100798.94;4975860;28;4096;-57
2022/04/02 07:45:03;;;;;;;;;;;;;;;21.21;36.79;100790.78;4959291;28;4268;-57
2022/04/02 07:47:31;;;;;;;;;;;;;;;21.19;37.29;100791.47;4976286;28;4148;-57
2022/04/02 07:50:16;;;;;;;;;;;;;;;21.19;37.69;100794.34;4973750;28;4016;-58
2022/04/02 07:52:43;;;;;;;;;;;;;;;21.19;37.84;100794.34;4975093;28;4239;-57
2022/04/02 07:55:10;;;;;;;;;;;;;;;21.19;38.11;100805.84;4977533;28;4078;-58
2022/04/02 07:57:37;;;;;;;;;;;;;;;21.21;38.06;100802.31;4975704;28;4053;-57
2022/04/02 08:00:05;;;;;;;;;;;;;;;21.17;38.13;100802.88;4974882;28;4060;-58
2022/04/02 08:02:43;;;;;;;;;;;;;;;21.19;37.97;100805.84;4974862;28;4065;-57
2022/04/02 08:05:17;;;;;;;;;;;;;;;21.25;37.97;100803.22;4968520;28;4187;-54
2022/04/02 08:07:49;;;;;;;;;;;;;;;21.24;38.17;100806.78;4976113;28;4067;-55
2022/04/02 08:10:19;;;;;;;;;;;;;;;21.28;37.92;100801.91;4975187;28;4146;-59
2022/04/02 08:12:48;;;;;;;;;;;;;;;21.05;37.70;100808.88;4961072;28;4056;-49
2022/04/02 08:15:23;;;;;;;;;;;;;;;21.12;37.86;100807.00;4974371;28;4256;-54
2022/04/02 08:17:55;;;;;;;;;;;;;;;21.07;37.22;100805.31;4979169;28;3947;-51
2022/04/02 08:20:21;;;;;;;;;;;;;;;21.12;37.32;100807.72;4977455;28;5274;-53
2022/04/02 08:22:48;;;;;;;;;;;;;;;21.16;37.83;100812.91;4979124;28;4234;-51
2022/04/02 08:25:15;;;;;;;;;;;;;;;21.20;37.60;100813.09;4975517;28;4201;-52
2022/04/02 08:27:54;;;;;;;;;;;;;;;21.20;37.55;100804.44;4955991;28;4144;-55
2022/04/02 08:30:39;;;;;;;;;;;;;;;21.18;37.91;100809.38;4971674;28;4122;-50
2022/04/02 08:33:17;;;;;;;;;;;;;;;21.20;38.00;100807.31;4978709;28;4099;-49
2022/04/02 08:35:52;;;;;;;;;;;;;;;21.20;38.15;100818.84;4981339;28;4303;-53
2022/04/02 08:38:26;;;;;;;;;;;;;;;21.11;37.93;100811.25;4976694;28;4075;-50
2022/04/02 08:41:11;;;;;;;;;;;;;;;21.14;37.97;100812.81;4975074;28;5336;-52
2022/04/02 08:43:59;;;;;;;;;;;;;;;21.16;37.94;100818.66;4973399;28;5261;-52
2022/04/02 08:46:35;;;;;;;;;;;;;;;21.18;38.14;100813.00;4975570;28;5252;-50
2022/04/02 08:49:24;;;;;;;;;;;;;;;21.17;38.08;100820.16;4977741;28;4187;-52
2022/04/02 08:52:04;;;;;;;;;;;;;;;21.17;38.34;100820.16;4978478;28;5712;-55
2022/04/02 08:54:30;;;;;;;;;;;;;;;21.21;38.16;100817.47;4979256;28;4211;-52
2022/04/02 08:57:07;;;;;;;;;;;;;;;21.22;38.20;100816.06;4974058;28;4211;-52
2022/04/02 08:59:37;;;;;;;;;;;;;;;21.21;38.28;100820.34;4977809;28;4323;-52
2022/04/02 09:02:09;;;;;;;;;;;;;;;21.24;38.26;100813.25;4976338;28;5282;-53
2022/04/02 09:04:57;;;;;;;;;;;;;;;21.21;38.29;100826.09;4974748;28;4255;-55
2022/04/02 09:07:42;;;;;;;;;;;;;;;21.23;38.42;100819.66;4978052;28;4282;-50
2022/04/02 09:10:11;;;;;;;;;;;;;;;21.22;38.50;100833.34;4979324;28;5344;-51
2022/04/02 09:12:47;;;;;;;;;;;;;;;21.21;38.40;100823.22;4978718;28;4178;-54
2022/04/02 09:15:15;;;;;;;;;;;;;;;21.26;38.43;100822.00;4976941;28;4203;-50
2022/04/02 09:17:45;;;;;;;;;;;;;;;21.25;38.59;100814.72;4980392;28;4065;-50
2022/04/02 09:20:18;;;;;;;;;;;;;;;21.24;38.56;100824.78;4977614;28;4170;-52
2022/04/02 09:22:59;;;;;;;;;;;;;;;21.23;38.49;100820.41;4979349;28;4297;-50
2022/04/02 09:25:44;;;;;;;;;;;;;;;21.21;38.61;100826.09;4975695;28;4083;-54
2022/04/02 09:28:18;;;;;;;;;;;;;;;21.26;38.56;100827.75;4973654;28;4088;-53
2022/04/02 09:30:44;;;;;;;;;;;;;;;21.26;38.43;100816.22;4974496;28;4134;-49
2022/04/02 09:33:29;;;;;;;;;;;;;;;21.26;38.49;100815.50;4972975;28;4172;-50
2022/04/02 09:36:10;;;;;;;;;;;;;;;21.26;38.66;100822.00;4975894;28;5320;-52
2022/04/02 09:38:42;;;;;;;;;;;;;;;21.29;38.51;100823.53;4975202;28;4168;-53
2022/04/02 09:41:27;;;;;;;;;;;;;;;21.29;38.80;100819.94;4977668;28;5403;-52
2022/04/02 09:43:54;;;;;;;;;;;;;;;21.30;38.77;100827.94;4977008;28;4270;-51
2022/04/02 09:46:32;;;;;;;;;;;;;;;21.28;38.56;100819.19;4974100;28;5244;-48
2022/04/02 09:49:00;;;;;;;;;;;;;;;21.26;38.52;100819.09;4974660;28;5663;-50
2022/04/02 09:51:30;;;;;;;;;;;;;;;21.28;38.58;100827.84;4971976;28;4218;-54
2022/04/02 09:54:19;;;;;;;;;;;;;;;21.28;38.53;100822.06;4970362;28;4249;-52
2022/04/02 09:56:46;;;;;;;;;;;;;;;21.36;38.53;100813.03;4972718;28;4165;-54
2022/04/02 09:59:22;;;;;;;;;;;;;;;21.36;38.45;100818.06;4962387;28;4165;-57
2022/04/02 10:01:48;;;;;;;;;;;;;;;21.51;38.61;100829.53;4965816;28;6395;-59
2022/04/02 10:04:36;;;;;;;;;;;;;;;21.57;38.46;100831.91;4971496;28;4621;-59
2022/04/02 10:07:02;;;;;;;;;;;;;;;21.64;38.23;100819.22;4970187;28;4363;-54
2022/04/02 10:09:33;;;;;;;;;;;;;;;21.64;38.28;100813.47;4970778;28;4004;-54
2022/04/02 10:11:59;;;;;;;;;;;;;;;21.63;38.52;100820.63;4969125;28;4149;-60
2022/04/02 10:14:27;;;;;;;;;;;;;;;21.69;38.34;100814.38;4972829;28;4053;-57
2022/04/02 10:16:55;;;;;;;;;;;;;;;21.75;38.34;100812.47;4974412;28;4197;-52
2022/04/02 10:19:31;;;;;;;;;;;;;;;21.60;38.68;100812.56;4971909;28;6258;-53
2022/04/02 10:22:01;;;;;;;;;;;;;;;21.52;39.29;100824.50;4969680;28;5217;-55
2022/04/02 10:24:27;;;;;;;;;;;;;;;21.48;39.41;100809.94;4972699;28;5471;-52
2022/04/02 10:26:54;;;;;;;;;;;;;;;21.45;39.29;100814.88;4972318;28;4429;-56
2022/04/02 10:29:41;;;;;;;;;;;;;;;21.48;39.32;100818.56;4973207;28;5396;-52
2022/04/02 10:32:25;;;;;;;;;;;;;;;21.47;39.57;100817.84;4965207;28;4251;-55
2022/04/02 10:34:55;;;;;;;;;;;;;;;21.46;39.66;100815.59;4964524;28;4056;-57
2022/04/02 10:37:21;;;;;;;;;;;;;;;21.48;39.64;100801.28;4976804;28;4158;-57
2022/04/02 10:39:52;;;;;;;;;;;;;;;21.68;39.37;100807.88;4978815;28;5204;-60
2022/04/02 10:42:19;;;;;;;;;;;;;;;21.63;39.97;100812.00;4978462;28;4118;-51
2022/04/02 10:44:56;;;;;;;;;;;;;;;21.69;39.66;100820.91;4968583;28;4227;-51
2022/04/02 10:47:23;;;;;;;;;;;;;;;21.69;39.83;100809.38;4968396;28;4047;-49
2022/04/02 10:49:50;;;;;;;;;;;;;;;21.75;40.03;100811.75;4965993;28;4250;-60
2022/04/02 10:52:16;;;;;;;;;;;;;;;21.72;39.93;100819.56;4958017;28;4269;-51
2022/04/02 10:54:46;;;;;;;;;;;;;;;21.70;40.25;100805.06;4961957;28;4554;-65
2022/04/02 10:57:13;;;;;;;;;;;;;;;21.69;39.53;100812.25;4962912;28;4185;-61
2022/04/02 10:59:40;;;;;;;;;;;;;;;21.26;33.32;100806.84;4968823;28;4313;-65
2022/04/02 11:02:09;;;;;;;;;;;;;;;20.88;29.03;100795.91;4970563;28;5492;-60
2022/04/02 11:04:54;;;;;;;;;;;;;;;21.12;32.90;100807.00;4972390;28;4251;-59
2022/04/02 11:07:30;;;;;;;;;;;;;;;20.68;36.25;100812.28;4976469;28;4603;-59
2022/04/02 11:09:57;;;;;;;;;;;;;;;21.11;35.79;100793.97;4973804;28;4907;-59
2022/04/02 11:12:30;;;;;;;;;;;;;;;21.22;36.27;100810.28;4976944;28;5496;-59
2022/04/02 11:15:10;;;;;;;;;;;;;;;21.32;36.12;100801.34;4976332;28;4663;-59
2022/04/02 11:17:37;;;;;;;;;;;;;;;21.33;36.16;100797.81;4975983;28;5156;-59
2022/04/02 11:20:05;;;;;;;;;;;;;;;21.43;36.60;100805.41;4974669;28;4424;-59
2022/04/02 11:22:36;;;;;;;;;;;;;;;21.43;36.49;100806.13;4975112;28;4253;-59
2022/04/02 11:25:10;;;;;;;;;;;;;;;21.44;36.72;100796.13;4980008;28;4190;-59
2022/04/02 11:27:37;;;;;;;;;;;;;;;21.45;36.71;100803.34;4978175;28;4062;-60
2022/04/02 11:30:05;;;;;;;;;;;;;;;21.49;36.71;100802.78;4977324;28;5558;-59
2022/04/02 11:32:36;;;;;;;;;;;;;;;21.45;36.79;100817.75;4978196;28;4177;-59
2022/04/02 11:35:06;;;;;;;;;;;;;;;21.42;36.98;100801.78;4979279;28;4377;-60
2022/04/02 11:37:33;;;;;;;;;;;;;;;21.43;36.92;100811.91;4977068;28;4199;-59
2022/04/02 11:40:04;;;;;;;;;;;;;;;21.44;37.16;100812.63;4975111;28;6505;-60
2022/04/02 11:42:32;;;;;;;;;;;;;;;21.41;37.00;100814.69;4977065;28;4196;-59
2022/04/02 11:44:58;;;;;;;;;;;;;;;21.42;37.05;100821.22;4977615;28;4495;-60
2022/04/02 11:47:25;;;;;;;;;;;;;;;21.39;37.35;100828.25;4977030;28;4350;-59
2022/04/02 11:49:53;;;;;;;;;;;;;;;21.39;37.22;100834.75;4979067;28;5537;-59
2022/04/02 11:52:19;;;;;;;;;;;;;;;21.40;37.17;100832.63;4965710;28;4605;-59
2022/04/02 11:54:45;;;;;;;;;;;;;;;21.40;37.31;100830.50;4966847;28;5875;-59
2022/04/02 11:57:12;;;;;;;;;;;;;;;21.36;37.41;100818.78;4963373;28;4042;-58
2022/04/02 11:59:48;;;;;;;;;;;;;;;21.36;37.30;100832.44;4963985;28;4383;-59
2022/04/02 12:02:32;;;;;;;;;;;;;;;21.36;37.43;100830.31;4957842;28;5859;-59
2022/04/02 12:05:01;;;;;;;;;;;;;;;21.41;37.40;100831.25;4964456;28;4420;-59
2022/04/02 12:07:37;;;;;;;;;;;;;;;21.36;37.44;100824.53;4964089;28;4110;-59
2022/04/02 12:10:04;;;;;;;;;;;;;;;21.36;37.46;100832.44;4966818;28;5855;-61
2022/04/02 12:12:30;;;;;;;;;;;;;;;21.39;37.46;100834.00;4968716;28;5483;-59
2022/04/02 12:14:58;;;;;;;;;;;;;;;21.37;37.60;100831.03;4962121;28;6028;-59
2022/04/02 12:17:31;;;;;;;;;;;;;;;21.34;37.62;100827.34;4961122;28;4675;-59
2022/04/02 12:19:57;;;;;;;;;;;;;;;21.37;37.60;100831.03;4962828;28;4291;-61
2022/04/02 12:22:28;;;;;;;;;;;;;;;21.38;37.64;100832.53;4965467;28;4177;-59
2022/04/02 12:24:58;;;;;;;;;;;;;;;21.37;37.69;100836.81;4965691;28;5684;-59
2022/04/02 12:27:26;;;;;;;;;;;;;;;21.39;37.51;100839.78;4965771;28;4523;-59
2022/04/02 12:29:53;;;;;;;;;;;;;;;21.37;37.51;100839.69;4963071;28;5495;-59
2022/04/02 12:32:29;;;;;;;;;;;;;;;21.37;37.58;100842.56;4965421;28;4677;-59
2022/04/02 12:34:58;;;;;;;;;;;;;;;21.38;37.79;100841.19;4967311;28;4167;-59
2022/04/02 12:37:28;;;;;;;;;;;;;;;21.37;37.62;100854.09;4966711;28;6275;-59
2022/04/02 12:39:55;;;;;;;;;;;;;;;21.37;37.65;100848.31;4964006;28;5218;-59
2022/04/02 12:42:37;;;;;;;;;;;;;;;21.32;37.71;100853.91;4964047;28;5202;-59
2022/04/02 12:45:04;;;;;;;;;;;;;;;21.32;37.83;100865.44;4962241;28;4542;-59
2022/04/02 12:47:31;;;;;;;;;;;;;;;21.32;37.68;100864.69;4964464;28;4590;-59
2022/04/02 12:50:08;;;;;;;;;;;;;;;21.31;37.76;100858.19;4965836;28;5683;-62
2022/04/02 12:52:42;;;;;;;;;;;;;;;21.31;37.74;100863.97;4961589;28;5221;-59
2022/04/02 12:55:08;;;;;;;;;;;;;;;21.33;37.87;100863.31;4964422;28;4615;-59
2022/04/02 12:57:34;;;;;;;;;;;;;;;21.32;37.66;100864.69;4966275;28;4677;-59
2022/04/02 13:00:01;;;;;;;;;;;;;;;21.36;37.83;100861.25;4962568;28;4790;-59
2022/04/02 13:02:27;;;;;;;;;;;;;;;21.33;37.75;100855.41;4963246;28;5307;-59
2022/04/02 13:05:07;;;;;;;;;;;;;;;21.33;37.83;100875.56;4965361;28;4612;-60